sensor_id;sensor_type;location;lat;lon;timestamp;temperature;humidity
22558;DHT22;11445;53.816;8.902;2023-12-07T00:00:51;1.20;99.90
22558;DHT22;11445;53.816;8.902;2023-12-07T00:03:18;1.20;99.90
22558;DHT22;11445;53.816;8.902;2023-12-07T00:05:45;1.20;99.90
22558;DHT22;11445;53.816;8.902;2023-12-07T00:08:11;1.20;99.90
22558;DHT22;11445;53.816;8.902;2023-12-07T00:10:40;1.20;99.90
22558;DHT22;11445;53.816;8.902;2023-12-07T00:13:07;1.30;99.90
22558;DHT22;11445;53.816;8.902;2023-12-07T00:15:33;1.30;99.90
22558;DHT22;11445;53.816;8.902;2023-12-07T00:18:00;1.30;99.90
22558;DHT22;11445;53.816;8.902;2023-12-07T00:20:28;1.30;99.90
22558;DHT22;11445;53.816;8.902;2023-12-07T00:22:55;1.30;99.90
22558;DHT22;11445;53.816;8.902;2023-12-07T00:25:22;1.20;99.90
22558;DHT22;11445;53.816;8.902;2023-12-07T00:27:50;1.20;99.90
22558;DHT22;11445;53.816;8.902;2023-12-07T00:30:17;1.20;99.90
22558;DHT22;11445;53.816;8.902;2023-12-07T00:32:44;1.30;99.90
22558;DHT22;11445;53.816;8.902;2023-12-07T00:35:12;1.30;99.90
22558;DHT22;11445;53.816;8.902;2023-12-07T00:37:40;1.30;99.90
22558;DHT22;11445;53.816;8.902;2023-12-07T00:40:07;1.30;99.90
22558;DHT22;11445;53.816;8.902;2023-12-07T00:42:34;1.30;99.90
22558;DHT22;11445;53.816;8.902;2023-12-07T00:45:03;1.30;99.90
22558;DHT22;11445;53.816;8.902;2023-12-07T00:47:30;1.30;99.90
22558;DHT22;11445;53.816;8.902;2023-12-07T00:49:56;1.30;99.90
22558;DHT22;11445;53.816;8.902;2023-12-07T00:52:23;1.30;99.90
22558;DHT22;11445;53.816;8.902;2023-12-07T00:54:50;1.30;99.90
22558;DHT22;11445;53.816;8.902;2023-12-07T00:57:17;1.30;99.90
22558;DHT22;11445;53.816;8.902;2023-12-07T00:59:44;1.30;99.90
22558;DHT22;11445;53.816;8.902;2023-12-07T01:02:12;1.30;99.90
22558;DHT22;11445;53.816;8.902;2023-12-07T01:04:39;1.30;99.90
22558;DHT22;11445;53.816;8.902;2023-12-07T01:07:06;1.40;99.90
22558;DHT22;11445;53.816;8.902;2023-12-07T01:09:33;1.40;99.90
22558;DHT22;11445;53.816;8.902;2023-12-07T01:12:01;1.40;99.90
22558;DHT22;11445;53.816;8.902;2023-12-07T01:14:28;1.40;99.90
22558;DHT22;11445;53.816;8.902;2023-12-07T01:16:55;1.40;99.90
22558;DHT22;11445;53.816;8.902;2023-12-07T01:19:23;1.40;99.90
22558;DHT22;11445;53.816;8.902;2023-12-07T01:21:50;1.40;99.90
22558;DHT22;11445;53.816;8.902;2023-12-07T01:24:17;1.30;99.90
22558;DHT22;11445;53.816;8.902;2023-12-07T01:26:44;1.30;99.90
22558;DHT22;11445;53.816;8.902;2023-12-07T01:29:11;1.30;99.90
22558;DHT22;11445;53.816;8.902;2023-12-07T01:31:39;1.30;99.90
22558;DHT22;11445;53.816;8.902;2023-12-07T01:34:06;1.30;99.90
22558;DHT22;11445;53.816;8.902;2023-12-07T01:36:34;1.30;99.90
22558;DHT22;11445;53.816;8.902;2023-12-07T01:39:01;1.30;99.90
22558;DHT22;11445;53.816;8.902;2023-12-07T01:41:28;1.30;99.90
22558;DHT22;11445;53.816;8.902;2023-12-07T01:43:55;1.40;99.90
22558;DHT22;11445;53.816;8.902;2023-12-07T01:46:22;1.40;99.90
22558;DHT22;11445;53.816;8.902;2023-12-07T01:48:49;1.40;99.90
22558;DHT22;11445;53.816;8.902;2023-12-07T01:51:17;1.40;99.90
22558;DHT22;11445;53.816;8.902;2023-12-07T01:53:47;1.40;99.90
22558;DHT22;11445;53.816;8.902;2023-12-07T01:56:14;1.40;99.90
22558;DHT22;11445;53.816;8.902;2023-12-07T01:58:42;1.40;99.90
22558;DHT22;11445;53.816;8.902;2023-12-07T02:01:09;1.40;99.90
22558;DHT22;11445;53.816;8.902;2023-12-07T02:03:39;1.40;99.90
22558;DHT22;11445;53.816;8.902;2023-12-07T02:06:06;1.40;99.90
22558;DHT22;11445;53.816;8.902;2023-12-07T02:08:34;1.40;99.90
22558;DHT22;11445;53.816;8.902;2023-12-07T02:11:03;1.40;99.90
22558;DHT22;11445;53.816;8.902;2023-12-07T02:13:29;1.40;99.90
22558;DHT22;11445;53.816;8.902;2023-12-07T02:15:58;1.40;99.90
22558;DHT22;11445;53.816;8.902;2023-12-07T02:18:28;1.40;99.90
22558;DHT22;11445;53.816;8.902;2023-12-07T02:21:06;1.40;99.90
22558;DHT22;11445;53.816;8.902;2023-12-07T02:23:35;1.30;99.90
22558;DHT22;11445;53.816;8.902;2023-12-07T02:29:21;1.40;99.90
22558;DHT22;11445;53.816;8.902;2023-12-07T02:31:48;1.40;99.90
22558;DHT22;11445;53.816;8.902;2023-12-07T02:34:15;1.40;99.90
22558;DHT22;11445;53.816;8.902;2023-12-07T02:36:43;1.40;99.90
22558;DHT22;11445;53.816;8.902;2023-12-07T02:39:11;1.40;99.90
22558;DHT22;11445;53.816;8.902;2023-12-07T02:41:39;1.40;99.90
22558;DHT22;11445;53.816;8.902;2023-12-07T02:44:07;1.40;99.90
22558;DHT22;11445;53.816;8.902;2023-12-07T02:46:35;1.40;99.90
22558;DHT22;11445;53.816;8.902;2023-12-07T02:49:02;1.40;99.90
22558;DHT22;11445;53.816;8.902;2023-12-07T02:51:29;1.40;99.90
22558;DHT22;11445;53.816;8.902;2023-12-07T02:53:56;1.40;99.90
22558;DHT22;11445;53.816;8.902;2023-12-07T02:56:23;1.40;99.90
22558;DHT22;11445;53.816;8.902;2023-12-07T02:58:49;1.40;99.90
22558;DHT22;11445;53.816;8.902;2023-12-07T03:01:16;1.40;99.90
22558;DHT22;11445;53.816;8.902;2023-12-07T03:03:45;1.40;99.90
22558;DHT22;11445;53.816;8.902;2023-12-07T03:06:11;1.40;99.90
22558;DHT22;11445;53.816;8.902;2023-12-07T03:08:39;1.40;99.90
22558;DHT22;11445;53.816;8.902;2023-12-07T03:11:05;1.40;99.90
22558;DHT22;11445;53.816;8.902;2023-12-07T03:13:32;1.40;99.90
22558;DHT22;11445;53.816;8.902;2023-12-07T03:15:59;1.40;99.90
22558;DHT22;11445;53.816;8.902;2023-12-07T03:18:26;1.40;99.90
22558;DHT22;11445;53.816;8.902;2023-12-07T03:20:54;1.40;99.90
22558;DHT22;11445;53.816;8.902;2023-12-07T03:23:21;1.40;99.90
22558;DHT22;11445;53.816;8.902;2023-12-07T03:25:47;1.40;99.90
22558;DHT22;11445;53.816;8.902;2023-12-07T03:28:14;1.40;99.90
22558;DHT22;11445;53.816;8.902;2023-12-07T03:30:41;1.40;99.90
22558;DHT22;11445;53.816;8.902;2023-12-07T03:33:08;1.40;99.90
22558;DHT22;11445;53.816;8.902;2023-12-07T03:35:34;1.40;99.90
22558;DHT22;11445;53.816;8.902;2023-12-07T03:38:03;1.40;99.90
22558;DHT22;11445;53.816;8.902;2023-12-07T03:40:29;1.40;99.90
22558;DHT22;11445;53.816;8.902;2023-12-07T03:42:56;1.40;99.90
22558;DHT22;11445;53.816;8.902;2023-12-07T03:45:23;1.40;99.90
22558;DHT22;11445;53.816;8.902;2023-12-07T03:47:50;1.40;99.90
22558;DHT22;11445;53.816;8.902;2023-12-07T03:50:17;1.40;99.90
22558;DHT22;11445;53.816;8.902;2023-12-07T03:52:43;1.40;99.90
22558;DHT22;11445;53.816;8.902;2023-12-07T03:55:12;1.40;99.90
22558;DHT22;11445;53.816;8.902;2023-12-07T03:57:39;1.40;99.90
22558;DHT22;11445;53.816;8.902;2023-12-07T04:00:07;1.40;99.90
22558;DHT22;11445;53.816;8.902;2023-12-07T04:02:34;1.40;99.90
22558;DHT22;11445;53.816;8.902;2023-12-07T04:05:01;1.40;99.90
22558;DHT22;11445;53.816;8.902;2023-12-07T04:07:28;1.40;99.90
22558;DHT22;11445;53.816;8.902;2023-12-07T04:09:55;1.40;99.90
22558;DHT22;11445;53.816;8.902;2023-12-07T04:12:24;1.40;99.90
22558;DHT22;11445;53.816;8.902;2023-12-07T04:14:50;1.40;99.90
22558;DHT22;11445;53.816;8.902;2023-12-07T04:17:18;1.40;99.90
22558;DHT22;11445;53.816;8.902;2023-12-07T04:19:45;1.40;99.90
22558;DHT22;11445;53.816;8.902;2023-12-07T04:22:12;1.40;99.90
22558;DHT22;11445;53.816;8.902;2023-12-07T04:24:38;1.40;99.90
22558;DHT22;11445;53.816;8.902;2023-12-07T04:27:05;1.40;99.90
22558;DHT22;11445;53.816;8.902;2023-12-07T04:29:33;1.40;99.90
22558;DHT22;11445;53.816;8.902;2023-12-07T04:32:01;1.40;99.90
22558;DHT22;11445;53.816;8.902;2023-12-07T04:34:28;1.40;99.90
22558;DHT22;11445;53.816;8.902;2023-12-07T04:36:55;1.40;99.90
22558;DHT22;11445;53.816;8.902;2023-12-07T04:39:22;1.40;99.90
22558;DHT22;11445;53.816;8.902;2023-12-07T04:41:48;1.40;99.90
22558;DHT22;11445;53.816;8.902;2023-12-07T04:44:16;1.40;99.90
22558;DHT22;11445;53.816;8.902;2023-12-07T04:46:44;1.40;99.90
22558;DHT22;11445;53.816;8.902;2023-12-07T04:49:11;1.40;99.90
22558;DHT22;11445;53.816;8.902;2023-12-07T04:51:38;1.40;99.90
22558;DHT22;11445;53.816;8.902;2023-12-07T04:54:07;1.40;99.90
22558;DHT22;11445;53.816;8.902;2023-12-07T04:56:34;1.40;99.90
22558;DHT22;11445;53.816;8.902;2023-12-07T04:59:01;1.40;99.90
22558;DHT22;11445;53.816;8.902;2023-12-07T05:01:27;1.40;99.90
22558;DHT22;11445;53.816;8.902;2023-12-07T05:03:56;1.40;99.90
22558;DHT22;11445;53.816;8.902;2023-12-07T05:06:22;1.40;99.90
22558;DHT22;11445;53.816;8.902;2023-12-07T05:08:49;1.40;99.90
22558;DHT22;11445;53.816;8.902;2023-12-07T05:11:16;1.40;99.90
22558;DHT22;11445;53.816;8.902;2023-12-07T05:13:43;1.40;99.90
22558;DHT22;11445;53.816;8.902;2023-12-07T05:16:10;1.40;99.90
22558;DHT22;11445;53.816;8.902;2023-12-07T05:18:36;1.40;99.90
22558;DHT22;11445;53.816;8.902;2023-12-07T05:21:05;1.40;99.90
22558;DHT22;11445;53.816;8.902;2023-12-07T05:23:32;1.40;99.90
22558;DHT22;11445;53.816;8.902;2023-12-07T05:25:59;1.40;99.90
22558;DHT22;11445;53.816;8.902;2023-12-07T05:28:26;1.40;99.90
22558;DHT22;11445;53.816;8.902;2023-12-07T05:30:53;1.40;99.90
22558;DHT22;11445;53.816;8.902;2023-12-07T05:33:22;1.30;99.90
22558;DHT22;11445;53.816;8.902;2023-12-07T05:35:50;1.40;99.90
22558;DHT22;11445;53.816;8.902;2023-12-07T05:38:18;1.40;99.90
22558;DHT22;11445;53.816;8.902;2023-12-07T05:40:45;1.30;99.90
22558;DHT22;11445;53.816;8.902;2023-12-07T05:43:12;1.40;99.90
22558;DHT22;11445;53.816;8.902;2023-12-07T05:45:39;1.40;99.90
22558;DHT22;11445;53.816;8.902;2023-12-07T05:48:06;1.30;99.90
22558;DHT22;11445;53.816;8.902;2023-12-07T05:50:33;1.30;99.90
22558;DHT22;11445;53.816;8.902;2023-12-07T05:53:00;1.30;99.90
22558;DHT22;11445;53.816;8.902;2023-12-07T05:55:28;1.30;99.90
22558;DHT22;11445;53.816;8.902;2023-12-07T05:57:54;1.20;99.90
22558;DHT22;11445;53.816;8.902;2023-12-07T06:00:21;1.20;99.90
22558;DHT22;11445;53.816;8.902;2023-12-07T06:02:48;1.20;99.90
22558;DHT22;11445;53.816;8.902;2023-12-07T06:05:15;1.20;99.90
22558;DHT22;11445;53.816;8.902;2023-12-07T06:07:42;1.20;99.90
22558;DHT22;11445;53.816;8.902;2023-12-07T06:10:09;1.20;99.90
22558;DHT22;11445;53.816;8.902;2023-12-07T06:12:37;1.10;99.90
22558;DHT22;11445;53.816;8.902;2023-12-07T06:15:05;1.10;99.90
22558;DHT22;11445;53.816;8.902;2023-12-07T06:17:33;1.10;99.90
22558;DHT22;11445;53.816;8.902;2023-12-07T06:20:00;1.10;99.90
22558;DHT22;11445;53.816;8.902;2023-12-07T06:22:28;1.10;99.90
22558;DHT22;11445;53.816;8.902;2023-12-07T06:24:56;1.00;99.90
22558;DHT22;11445;53.816;8.902;2023-12-07T06:27:23;1.00;99.90
22558;DHT22;11445;53.816;8.902;2023-12-07T06:29:51;1.00;99.90
22558;DHT22;11445;53.816;8.902;2023-12-07T06:32:18;1.00;99.90
22558;DHT22;11445;53.816;8.902;2023-12-07T06:34:44;1.10;99.90
22558;DHT22;11445;53.816;8.902;2023-12-07T06:37:11;1.10;99.90
22558;DHT22;11445;53.816;8.902;2023-12-07T06:39:38;1.10;99.90
22558;DHT22;11445;53.816;8.902;2023-12-07T06:42:05;1.10;99.90
22558;DHT22;11445;53.816;8.902;2023-12-07T06:44:33;1.10;99.90
22558;DHT22;11445;53.816;8.902;2023-12-07T06:47:01;1.20;99.90
22558;DHT22;11445;53.816;8.902;2023-12-07T06:49:30;1.30;99.90
22558;DHT22;11445;53.816;8.902;2023-12-07T06:51:56;1.30;99.90
22558;DHT22;11445;53.816;8.902;2023-12-07T06:54:23;1.30;99.90
22558;DHT22;11445;53.816;8.902;2023-12-07T06:56:50;1.20;99.90
22558;DHT22;11445;53.816;8.902;2023-12-07T06:59:17;1.20;99.90
22558;DHT22;11445;53.816;8.902;2023-12-07T07:01:44;1.20;99.90
22558;DHT22;11445;53.816;8.902;2023-12-07T07:04:12;1.20;99.90
22558;DHT22;11445;53.816;8.902;2023-12-07T07:06:40;1.10;99.90
22558;DHT22;11445;53.816;8.902;2023-12-07T07:09:07;1.10;99.90
22558;DHT22;11445;53.816;8.902;2023-12-07T07:11:34;1.10;99.90
22558;DHT22;11445;53.816;8.902;2023-12-07T07:14:02;1.10;99.90
22558;DHT22;11445;53.816;8.902;2023-12-07T07:16:30;1.10;99.90
22558;DHT22;11445;53.816;8.902;2023-12-07T07:18:57;1.10;99.90
22558;DHT22;11445;53.816;8.902;2023-12-07T07:21:26;1.00;99.90
22558;DHT22;11445;53.816;8.902;2023-12-07T07:23:52;1.00;99.90
22558;DHT22;11445;53.816;8.902;2023-12-07T07:26:19;1.00;99.90
22558;DHT22;11445;53.816;8.902;2023-12-07T07:28:46;1.00;99.90
22558;DHT22;11445;53.816;8.902;2023-12-07T07:31:13;1.00;99.90
22558;DHT22;11445;53.816;8.902;2023-12-07T07:33:40;1.00;99.90
22558;DHT22;11445;53.816;8.902;2023-12-07T07:36:07;1.00;99.90
22558;DHT22;11445;53.816;8.902;2023-12-07T07:38:35;1.00;99.90
22558;DHT22;11445;53.816;8.902;2023-12-07T07:41:02;1.00;99.90
22558;DHT22;11445;53.816;8.902;2023-12-07T07:43:29;1.00;99.90
22558;DHT22;11445;53.816;8.902;2023-12-07T07:45:56;1.00;99.90
22558;DHT22;11445;53.816;8.902;2023-12-07T07:48:23;1.00;99.90
22558;DHT22;11445;53.816;8.902;2023-12-07T07:50:51;1.00;99.90
22558;DHT22;11445;53.816;8.902;2023-12-07T07:53:18;1.00;99.90
22558;DHT22;11445;53.816;8.902;2023-12-07T07:55:46;1.00;99.90
22558;DHT22;11445;53.816;8.902;2023-12-07T07:58:13;0.90;99.90
22558;DHT22;11445;53.816;8.902;2023-12-07T08:00:40;0.90;99.90
22558;DHT22;11445;53.816;8.902;2023-12-07T08:03:07;0.90;99.90
22558;DHT22;11445;53.816;8.902;2023-12-07T08:05:33;1.00;99.90
22558;DHT22;11445;53.816;8.902;2023-12-07T08:08:00;0.90;99.90
22558;DHT22;11445;53.816;8.902;2023-12-07T08:10:27;0.90;99.90
22558;DHT22;11445;53.816;8.902;2023-12-07T08:12:55;1.00;99.90
22558;DHT22;11445;53.816;8.902;2023-12-07T08:15:22;1.00;99.90
22558;DHT22;11445;53.816;8.902;2023-12-07T08:17:49;1.00;99.90
22558;DHT22;11445;53.816;8.902;2023-12-07T08:20:16;1.00;99.90
22558;DHT22;11445;53.816;8.902;2023-12-07T08:22:43;1.00;99.90
22558;DHT22;11445;53.816;8.902;2023-12-07T08:25:11;1.10;99.90
22558;DHT22;11445;53.816;8.902;2023-12-07T08:27:38;1.10;99.90
22558;DHT22;11445;53.816;8.902;2023-12-07T08:30:07;1.10;99.90
22558;DHT22;11445;53.816;8.902;2023-12-07T08:32:35;1.10;99.90
22558;DHT22;11445;53.816;8.902;2023-12-07T08:35:02;1.20;99.90
22558;DHT22;11445;53.816;8.902;2023-12-07T08:37:30;1.20;99.90
22558;DHT22;11445;53.816;8.902;2023-12-07T08:39:57;1.20;99.90
22558;DHT22;11445;53.816;8.902;2023-12-07T08:42:24;1.20;99.90
22558;DHT22;11445;53.816;8.902;2023-12-07T08:44:52;1.30;99.90
22558;DHT22;11445;53.816;8.902;2023-12-07T08:47:20;1.30;99.90
22558;DHT22;11445;53.816;8.902;2023-12-07T08:49:47;1.30;99.90
22558;DHT22;11445;53.816;8.902;2023-12-07T08:52:14;1.30;99.90
22558;DHT22;11445;53.816;8.902;2023-12-07T08:54:40;1.30;99.90
22558;DHT22;11445;53.816;8.902;2023-12-07T08:57:07;1.30;99.90
22558;DHT22;11445;53.816;8.902;2023-12-07T08:59:34;1.30;99.90
22558;DHT22;11445;53.816;8.902;2023-12-07T09:02:01;1.30;99.90
22558;DHT22;11445;53.816;8.902;2023-12-07T09:04:29;1.30;99.90
22558;DHT22;11445;53.816;8.902;2023-12-07T09:06:55;1.40;99.90
22558;DHT22;11445;53.816;8.902;2023-12-07T09:09:22;1.40;99.90
22558;DHT22;11445;53.816;8.902;2023-12-07T09:11:51;1.40;99.90
22558;DHT22;11445;53.816;8.902;2023-12-07T09:14:18;1.40;99.90
22558;DHT22;11445;53.816;8.902;2023-12-07T09:16:45;1.50;99.90
22558;DHT22;11445;53.816;8.902;2023-12-07T09:19:12;1.50;99.90
22558;DHT22;11445;53.816;8.902;2023-12-07T09:21:41;1.50;99.90
22558;DHT22;11445;53.816;8.902;2023-12-07T09:24:08;1.50;99.90
22558;DHT22;11445;53.816;8.902;2023-12-07T09:26:35;1.60;99.90
22558;DHT22;11445;53.816;8.902;2023-12-07T09:29:02;1.60;99.90
22558;DHT22;11445;53.816;8.902;2023-12-07T09:31:28;1.50;99.90
22558;DHT22;11445;53.816;8.902;2023-12-07T09:33:55;1.60;99.90
22558;DHT22;11445;53.816;8.902;2023-12-07T09:36:21;1.60;99.90
22558;DHT22;11445;53.816;8.902;2023-12-07T09:38:51;1.50;99.90
22558;DHT22;11445;53.816;8.902;2023-12-07T09:41:17;1.60;99.90
22558;DHT22;11445;53.816;8.902;2023-12-07T09:43:45;1.60;99.90
22558;DHT22;11445;53.816;8.902;2023-12-07T09:46:12;1.60;99.90
22558;DHT22;11445;53.816;8.902;2023-12-07T09:48:42;1.50;99.90
22558;DHT22;11445;53.816;8.902;2023-12-07T09:51:09;1.50;99.90
22558;DHT22;11445;53.816;8.902;2023-12-07T09:53:38;1.50;99.90
22558;DHT22;11445;53.816;8.902;2023-12-07T09:56:08;1.60;99.90
22558;DHT22;11445;53.816;8.902;2023-12-07T09:58:35;1.60;99.90
22558;DHT22;11445;53.816;8.902;2023-12-07T10:01:02;1.60;99.90
22558;DHT22;11445;53.816;8.902;2023-12-07T10:03:29;1.60;99.90
22558;DHT22;11445;53.816;8.902;2023-12-07T10:05:57;1.60;99.90
22558;DHT22;11445;53.816;8.902;2023-12-07T10:08:26;1.60;99.90
22558;DHT22;11445;53.816;8.902;2023-12-07T10:11:02;1.60;99.90
22558;DHT22;11445;53.816;8.902;2023-12-07T10:13:32;1.60;99.90
22558;DHT22;11445;53.816;8.902;2023-12-07T10:16:09;1.60;99.90
22558;DHT22;11445;53.816;8.902;2023-12-07T10:18:36;1.60;99.90
22558;DHT22;11445;53.816;8.902;2023-12-07T10:21:06;1.60;99.90
22558;DHT22;11445;53.816;8.902;2023-12-07T10:23:35;1.60;99.90
22558;DHT22;11445;53.816;8.902;2023-12-07T10:26:02;1.60;99.90
22558;DHT22;11445;53.816;8.902;2023-12-07T10:28:29;1.60;99.90
22558;DHT22;11445;53.816;8.902;2023-12-07T10:30:57;1.70;99.90
22558;DHT22;11445;53.816;8.902;2023-12-07T10:33:26;1.70;99.90
22558;DHT22;11445;53.816;8.902;2023-12-07T10:35:52;1.70;99.90
22558;DHT22;11445;53.816;8.902;2023-12-07T10:38:19;1.70;99.90
22558;DHT22;11445;53.816;8.902;2023-12-07T10:40:47;1.70;99.90
22558;DHT22;11445;53.816;8.902;2023-12-07T10:43:16;1.70;99.90
22558;DHT22;11445;53.816;8.902;2023-12-07T10:45:46;1.80;99.90
22558;DHT22;11445;53.816;8.902;2023-12-07T10:48:15;1.80;99.90
22558;DHT22;11445;53.816;8.902;2023-12-07T10:50:45;1.80;99.90
22558;DHT22;11445;53.816;8.902;2023-12-07T10:53:19;1.80;99.90
22558;DHT22;11445;53.816;8.902;2023-12-07T10:55:52;1.80;99.90
22558;DHT22;11445;53.816;8.902;2023-12-07T10:58:21;1.90;99.90
22558;DHT22;11445;53.816;8.902;2023-12-07T11:00:52;1.90;99.90
22558;DHT22;11445;53.816;8.902;2023-12-07T11:03:21;1.90;99.90
22558;DHT22;11445;53.816;8.902;2023-12-07T11:05:48;2.00;99.90
22558;DHT22;11445;53.816;8.902;2023-12-07T11:08:21;2.00;99.90
22558;DHT22;11445;53.816;8.902;2023-12-07T11:10:57;2.00;99.90
22558;DHT22;11445;53.816;8.902;2023-12-07T11:13:28;2.00;99.90
22558;DHT22;11445;53.816;8.902;2023-12-07T11:15:56;2.00;99.90
22558;DHT22;11445;53.816;8.902;2023-12-07T11:18:26;2.00;99.90
22558;DHT22;11445;53.816;8.902;2023-12-07T11:20:54;2.10;99.90
22558;DHT22;11445;53.816;8.902;2023-12-07T11:23:22;2.10;99.90
22558;DHT22;11445;53.816;8.902;2023-12-07T11:25:50;2.10;99.90
22558;DHT22;11445;53.816;8.902;2023-12-07T11:28:18;2.10;99.90
22558;DHT22;11445;53.816;8.902;2023-12-07T11:30:45;2.20;99.90
22558;DHT22;11445;53.816;8.902;2023-12-07T11:33:14;2.20;99.90
22558;DHT22;11445;53.816;8.902;2023-12-07T11:36:05;2.30;99.90
22558;DHT22;11445;53.816;8.902;2023-12-07T11:38:32;2.30;99.90
22558;DHT22;11445;53.816;8.902;2023-12-07T11:41:00;2.40;99.90
22558;DHT22;11445;53.816;8.902;2023-12-07T11:43:37;2.40;99.90
22558;DHT22;11445;53.816;8.902;2023-12-07T11:46:06;2.40;99.90
22558;DHT22;11445;53.816;8.902;2023-12-07T11:48:33;2.40;99.90
22558;DHT22;11445;53.816;8.902;2023-12-07T11:51:01;2.40;99.90
22558;DHT22;11445;53.816;8.902;2023-12-07T11:53:30;2.40;99.90
22558;DHT22;11445;53.816;8.902;2023-12-07T11:55:58;2.40;99.90
22558;DHT22;11445;53.816;8.902;2023-12-07T11:58:25;2.40;99.90
22558;DHT22;11445;53.816;8.902;2023-12-07T12:00:53;2.40;99.90
22558;DHT22;11445;53.816;8.902;2023-12-07T12:03:22;2.30;99.90
22558;DHT22;11445;53.816;8.902;2023-12-07T12:05:48;2.30;99.90
22558;DHT22;11445;53.816;8.902;2023-12-07T12:08:16;2.30;99.90
22558;DHT22;11445;53.816;8.902;2023-12-07T12:10:44;2.30;99.90
22558;DHT22;11445;53.816;8.902;2023-12-07T12:13:12;2.30;99.90
22558;DHT22;11445;53.816;8.902;2023-12-07T12:15:39;2.40;99.90
22558;DHT22;11445;53.816;8.902;2023-12-07T12:18:07;2.40;99.90
22558;DHT22;11445;53.816;8.902;2023-12-07T12:20:34;2.30;99.90
22558;DHT22;11445;53.816;8.902;2023-12-07T12:23:01;2.30;99.90
22558;DHT22;11445;53.816;8.902;2023-12-07T12:25:29;2.30;99.90
22558;DHT22;11445;53.816;8.902;2023-12-07T12:28:01;2.30;99.90
22558;DHT22;11445;53.816;8.902;2023-12-07T12:30:29;2.30;99.90
22558;DHT22;11445;53.816;8.902;2023-12-07T12:32:57;2.30;99.90
22558;DHT22;11445;53.816;8.902;2023-12-07T12:35:25;2.30;99.90
22558;DHT22;11445;53.816;8.902;2023-12-07T12:37:52;2.30;99.90
22558;DHT22;11445;53.816;8.902;2023-12-07T12:40:21;2.30;99.90
22558;DHT22;11445;53.816;8.902;2023-12-07T12:42:50;2.30;99.90
22558;DHT22;11445;53.816;8.902;2023-12-07T12:45:19;2.30;99.90
22558;DHT22;11445;53.816;8.902;2023-12-07T12:47:47;2.30;99.90
22558;DHT22;11445;53.816;8.902;2023-12-07T12:50:32;2.50;99.90
22558;DHT22;11445;53.816;8.902;2023-12-07T12:52:59;2.70;99.90
22558;DHT22;11445;53.816;8.902;2023-12-07T12:55:27;2.80;99.90
22558;DHT22;11445;53.816;8.902;2023-12-07T12:57:56;2.80;99.90
22558;DHT22;11445;53.816;8.902;2023-12-07T13:00:26;2.70;99.90
22558;DHT22;11445;53.816;8.902;2023-12-07T13:02:53;2.70;99.90
22558;DHT22;11445;53.816;8.902;2023-12-07T13:05:19;2.60;99.90
22558;DHT22;11445;53.816;8.902;2023-12-07T13:07:46;2.50;99.90
22558;DHT22;11445;53.816;8.902;2023-12-07T13:10:14;2.50;99.90
22558;DHT22;11445;53.816;8.902;2023-12-07T13:12:41;2.50;99.90
22558;DHT22;11445;53.816;8.902;2023-12-07T13:15:09;2.40;99.90
22558;DHT22;11445;53.816;8.902;2023-12-07T13:17:37;2.40;99.90
22558;DHT22;11445;53.816;8.902;2023-12-07T13:20:05;2.40;99.90
22558;DHT22;11445;53.816;8.902;2023-12-07T13:22:33;2.30;99.90
22558;DHT22;11445;53.816;8.902;2023-12-07T13:25:00;2.30;99.90
22558;DHT22;11445;53.816;8.902;2023-12-07T13:27:27;2.20;99.90
22558;DHT22;11445;53.816;8.902;2023-12-07T13:29:55;2.10;99.90
22558;DHT22;11445;53.816;8.902;2023-12-07T13:32:21;2.10;99.90
22558;DHT22;11445;53.816;8.902;2023-12-07T13:34:50;2.00;99.90
22558;DHT22;11445;53.816;8.902;2023-12-07T13:37:17;2.00;99.90
22558;DHT22;11445;53.816;8.902;2023-12-07T13:39:46;2.00;99.90
22558;DHT22;11445;53.816;8.902;2023-12-07T13:42:18;1.90;99.90
22558;DHT22;11445;53.816;8.902;2023-12-07T13:44:45;1.90;99.90
22558;DHT22;11445;53.816;8.902;2023-12-07T13:47:12;1.90;99.90
22558;DHT22;11445;53.816;8.902;2023-12-07T13:49:40;1.90;99.90
22558;DHT22;11445;53.816;8.902;2023-12-07T13:52:08;1.90;99.90
22558;DHT22;11445;53.816;8.902;2023-12-07T13:54:35;1.90;99.90
22558;DHT22;11445;53.816;8.902;2023-12-07T13:57:02;1.90;99.90
22558;DHT22;11445;53.816;8.902;2023-12-07T13:59:29;1.90;99.90
22558;DHT22;11445;53.816;8.902;2023-12-07T14:01:56;1.90;99.90
22558;DHT22;11445;53.816;8.902;2023-12-07T14:04:23;1.90;99.90
22558;DHT22;11445;53.816;8.902;2023-12-07T14:06:50;1.90;99.90
22558;DHT22;11445;53.816;8.902;2023-12-07T14:09:19;1.90;99.90
22558;DHT22;11445;53.816;8.902;2023-12-07T14:11:46;2.00;99.90
22558;DHT22;11445;53.816;8.902;2023-12-07T14:14:12;2.00;99.90
22558;DHT22;11445;53.816;8.902;2023-12-07T14:16:39;2.00;99.90
22558;DHT22;11445;53.816;8.902;2023-12-07T14:19:06;2.10;99.90
22558;DHT22;11445;53.816;8.902;2023-12-07T14:21:33;2.00;99.90
22558;DHT22;11445;53.816;8.902;2023-12-07T14:24:00;2.00;99.90
22558;DHT22;11445;53.816;8.902;2023-12-07T14:26:28;1.90;99.90
22558;DHT22;11445;53.816;8.902;2023-12-07T14:28:54;1.80;99.90
22558;DHT22;11445;53.816;8.902;2023-12-07T14:31:21;1.80;99.90
22558;DHT22;11445;53.816;8.902;2023-12-07T14:33:48;1.80;99.90
22558;DHT22;11445;53.816;8.902;2023-12-07T14:36:16;1.70;99.90
22558;DHT22;11445;53.816;8.902;2023-12-07T14:38:43;1.70;99.90
22558;DHT22;11445;53.816;8.902;2023-12-07T14:41:10;1.70;99.90
22558;DHT22;11445;53.816;8.902;2023-12-07T14:43:39;1.60;99.90
22558;DHT22;11445;53.816;8.902;2023-12-07T14:46:06;1.60;99.90
22558;DHT22;11445;53.816;8.902;2023-12-07T14:48:33;1.60;99.90
22558;DHT22;11445;53.816;8.902;2023-12-07T14:51:00;1.50;99.90
22558;DHT22;11445;53.816;8.902;2023-12-07T14:53:28;1.50;99.90
22558;DHT22;11445;53.816;8.902;2023-12-07T14:55:55;1.50;99.90
22558;DHT22;11445;53.816;8.902;2023-12-07T14:58:23;1.40;99.90
22558;DHT22;11445;53.816;8.902;2023-12-07T15:00:53;1.40;99.90
22558;DHT22;11445;53.816;8.902;2023-12-07T15:03:20;1.40;99.90
22558;DHT22;11445;53.816;8.902;2023-12-07T15:05:47;1.40;99.90
22558;DHT22;11445;53.816;8.902;2023-12-07T15:08:14;1.40;99.90
22558;DHT22;11445;53.816;8.902;2023-12-07T15:10:41;1.40;99.90
22558;DHT22;11445;53.816;8.902;2023-12-07T15:13:08;1.40;99.90
22558;DHT22;11445;53.816;8.902;2023-12-07T15:15:35;1.40;99.90
22558;DHT22;11445;53.816;8.902;2023-12-07T15:18:04;1.40;99.90
22558;DHT22;11445;53.816;8.902;2023-12-07T15:20:31;1.40;99.90
22558;DHT22;11445;53.816;8.902;2023-12-07T15:22:57;1.40;99.90
22558;DHT22;11445;53.816;8.902;2023-12-07T15:25:24;1.40;99.90
22558;DHT22;11445;53.816;8.902;2023-12-07T15:27:51;1.40;99.90
22558;DHT22;11445;53.816;8.902;2023-12-07T15:30:18;1.40;99.90
22558;DHT22;11445;53.816;8.902;2023-12-07T15:32:48;1.40;99.90
22558;DHT22;11445;53.816;8.902;2023-12-07T15:35:17;1.40;99.90
22558;DHT22;11445;53.816;8.902;2023-12-07T15:37:44;1.40;99.90
22558;DHT22;11445;53.816;8.902;2023-12-07T15:40:11;1.40;99.90
22558;DHT22;11445;53.816;8.902;2023-12-07T15:42:38;1.40;99.90
22558;DHT22;11445;53.816;8.902;2023-12-07T15:45:06;1.40;99.90
22558;DHT22;11445;53.816;8.902;2023-12-07T15:47:33;1.40;99.90
22558;DHT22;11445;53.816;8.902;2023-12-07T15:50:00;1.40;99.90